sensor_id;sensor_type;location;lat;lon;timestamp;P1;durP1;ratioP1;P2;durP2;ratioP2
1839;SDS011;920;48.944;9.148;2023-08-01T00:00:14;4.20;;;2.87;;
1839;SDS011;920;48.944;9.148;2023-08-01T00:02:42;4.53;;;2.70;;
1839;SDS011;920;48.944;9.148;2023-08-01T00:05:10;4.10;;;3.23;;
1839;SDS011;920;48.944;9.148;2023-08-01T00:07:37;4.57;;;3.20;;
1839;SDS011;920;48.944;9.148;2023-08-01T00:10:04;5.07;;;2.90;;
1839;SDS011;920;48.944;9.148;2023-08-01T00:12:33;4.47;;;3.00;;
1839;SDS011;920;48.944;9.148;2023-08-01T00:14:59;3.93;;;2.60;;
1839;SDS011;920;48.944;9.148;2023-08-01T00:17:26;4.30;;;3.20;;
1839;SDS011;920;48.944;9.148;2023-08-01T00:19:53;4.33;;;2.80;;
1839;SDS011;920;48.944;9.148;2023-08-01T00:22:20;4.00;;;2.90;;
1839;SDS011;920;48.944;9.148;2023-08-01T00:24:47;3.03;;;2.50;;
1839;SDS011;920;48.944;9.148;2023-08-01T00:27:14;4.30;;;2.93;;
1839;SDS011;920;48.944;9.148;2023-08-01T00:29:42;4.60;;;2.60;;
1839;SDS011;920;48.944;9.148;2023-08-01T00:32:09;4.50;;;3.03;;
1839;SDS011;920;48.944;9.148;2023-08-01T00:34:36;3.53;;;2.50;;
1839;SDS011;920;48.944;9.148;2023-08-01T00:37:03;3.40;;;2.87;;
1839;SDS011;920;48.944;9.148;2023-08-01T00:39:30;3.50;;;2.50;;
1839;SDS011;920;48.944;9.148;2023-08-01T00:41:57;5.30;;;3.10;;
1839;SDS011;920;48.944;9.148;2023-08-01T00:44:24;3.03;;;2.40;;
1839;SDS011;920;48.944;9.148;2023-08-01T00:46:52;4.50;;;2.93;;
1839;SDS011;920;48.944;9.148;2023-08-01T00:49:18;3.93;;;2.53;;
1839;SDS011;920;48.944;9.148;2023-08-01T00:51:46;3.50;;;2.80;;
1839;SDS011;920;48.944;9.148;2023-08-01T00:54:13;4.17;;;2.90;;
1839;SDS011;920;48.944;9.148;2023-08-01T00:56:40;3.80;;;3.10;;
1839;SDS011;920;48.944;9.148;2023-08-01T00:59:07;3.70;;;2.70;;
1839;SDS011;920;48.944;9.148;2023-08-01T01:01:34;5.57;;;3.60;;
1839;SDS011;920;48.944;9.148;2023-08-01T01:04:03;3.70;;;2.80;;
1839;SDS011;920;48.944;9.148;2023-08-01T01:06:32;5.07;;;3.40;;
1839;SDS011;920;48.944;9.148;2023-08-01T01:08:59;4.40;;;3.07;;
1839;SDS011;920;48.944;9.148;2023-08-01T01:11:26;4.20;;;3.00;;
1839;SDS011;920;48.944;9.148;2023-08-01T01:13:53;5.00;;;2.80;;
1839;SDS011;920;48.944;9.148;2023-08-01T01:16:20;4.00;;;3.07;;
1839;SDS011;920;48.944;9.148;2023-08-01T01:18:47;4.23;;;2.70;;
1839;SDS011;920;48.944;9.148;2023-08-01T01:21:15;4.73;;;3.50;;
1839;SDS011;920;48.944;9.148;2023-08-01T01:23:42;7.60;;;3.17;;
1839;SDS011;920;48.944;9.148;2023-08-01T01:26:09;5.23;;;3.00;;
1839;SDS011;920;48.944;9.148;2023-08-01T01:28:37;3.67;;;3.07;;
1839;SDS011;920;48.944;9.148;2023-08-01T01:31:03;5.90;;;3.27;;
1839;SDS011;920;48.944;9.148;2023-08-01T01:33:31;4.83;;;3.50;;
1839;SDS011;920;48.944;9.148;2023-08-01T01:36:00;5.53;;;3.00;;
1839;SDS011;920;48.944;9.148;2023-08-01T01:38:28;5.80;;;3.23;;
1839;SDS011;920;48.944;9.148;2023-08-01T01:40:55;5.57;;;3.63;;
1839;SDS011;920;48.944;9.148;2023-08-01T01:43:22;4.53;;;3.50;;
1839;SDS011;920;48.944;9.148;2023-08-01T01:45:48;3.93;;;3.10;;
1839;SDS011;920;48.944;9.148;2023-08-01T01:48:15;4.20;;;3.20;;
1839;SDS011;920;48.944;9.148;2023-08-01T01:50:42;4.63;;;2.80;;
1839;SDS011;920;48.944;9.148;2023-08-01T01:53:09;3.80;;;3.00;;
1839;SDS011;920;48.944;9.148;2023-08-01T01:55:37;4.57;;;3.20;;
1839;SDS011;920;48.944;9.148;2023-08-01T01:58:04;4.90;;;3.13;;
1839;SDS011;920;48.944;9.148;2023-08-01T02:00:31;4.13;;;3.03;;
1839;SDS011;920;48.944;9.148;2023-08-01T02:02:58;4.57;;;3.17;;
1839;SDS011;920;48.944;9.148;2023-08-01T02:05:25;4.03;;;2.73;;
1839;SDS011;920;48.944;9.148;2023-08-01T02:07:52;4.27;;;2.50;;
1839;SDS011;920;48.944;9.148;2023-08-01T02:10:19;3.87;;;3.10;;
1839;SDS011;920;48.944;9.148;2023-08-01T02:12:47;5.47;;;3.03;;
1839;SDS011;920;48.944;9.148;2023-08-01T02:15:14;4.33;;;3.40;;
1839;SDS011;920;48.944;9.148;2023-08-01T02:17:41;3.47;;;2.87;;
1839;SDS011;920;48.944;9.148;2023-08-01T02:20:08;4.93;;;3.57;;
1839;SDS011;920;48.944;9.148;2023-08-01T02:22:39;5.50;;;3.90;;
1839;SDS011;920;48.944;9.148;2023-08-01T02:25:07;3.60;;;2.87;;
1839;SDS011;920;48.944;9.148;2023-08-01T02:27:33;4.20;;;2.97;;
1839;SDS011;920;48.944;9.148;2023-08-01T02:30:02;3.70;;;3.13;;
1839;SDS011;920;48.944;9.148;2023-08-01T02:32:30;3.60;;;2.90;;
1839;SDS011;920;48.944;9.148;2023-08-01T02:34:57;4.50;;;3.00;;
1839;SDS011;920;48.944;9.148;2023-08-01T02:37:24;4.70;;;3.23;;
1839;SDS011;920;48.944;9.148;2023-08-01T02:39:51;5.20;;;3.30;;
1839;SDS011;920;48.944;9.148;2023-08-01T02:42:18;4.40;;;2.90;;
1839;SDS011;920;48.944;9.148;2023-08-01T02:44:45;5.20;;;3.63;;
1839;SDS011;920;48.944;9.148;2023-08-01T02:47:13;4.00;;;2.83;;
1839;SDS011;920;48.944;9.148;2023-08-01T02:49:40;3.17;;;2.60;;
1839;SDS011;920;48.944;9.148;2023-08-01T02:52:07;3.70;;;3.00;;
1839;SDS011;920;48.944;9.148;2023-08-01T02:54:35;4.47;;;2.90;;
1839;SDS011;920;48.944;9.148;2023-08-01T02:57:02;4.70;;;3.60;;
1839;SDS011;920;48.944;9.148;2023-08-01T02:59:29;5.87;;;3.17;;
1839;SDS011;920;48.944;9.148;2023-08-01T03:01:58;3.40;;;2.60;;
1839;SDS011;920;48.944;9.148;2023-08-01T03:04:26;3.43;;;2.77;;
1839;SDS011;920;48.944;9.148;2023-08-01T03:06:53;4.07;;;3.40;;
1839;SDS011;920;48.944;9.148;2023-08-01T03:09:20;4.20;;;3.20;;
1839;SDS011;920;48.944;9.148;2023-08-01T03:11:46;4.10;;;2.70;;
1839;SDS011;920;48.944;9.148;2023-08-01T03:14:14;3.50;;;2.90;;
1839;SDS011;920;48.944;9.148;2023-08-01T03:16:41;4.43;;;2.80;;
1839;SDS011;920;48.944;9.148;2023-08-01T03:19:08;3.70;;;2.97;;
1839;SDS011;920;48.944;9.148;2023-08-01T03:21:36;4.00;;;3.10;;
1839;SDS011;920;48.944;9.148;2023-08-01T03:24:03;3.73;;;2.73;;
1839;SDS011;920;48.944;9.148;2023-08-01T03:26:33;4.60;;;3.00;;
1839;SDS011;920;48.944;9.148;2023-08-01T03:29:00;3.50;;;2.70;;
1839;SDS011;920;48.944;9.148;2023-08-01T03:31:27;3.50;;;2.70;;
1839;SDS011;920;48.944;9.148;2023-08-01T03:33:54;4.20;;;3.30;;
1839;SDS011;920;48.944;9.148;2023-08-01T03:36:23;5.07;;;3.50;;
1839;SDS011;920;48.944;9.148;2023-08-01T03:38:52;5.10;;;3.20;;
1839;SDS011;920;48.944;9.148;2023-08-01T03:41:18;4.20;;;3.30;;
1839;SDS011;920;48.944;9.148;2023-08-01T03:43:47;3.90;;;3.00;;
1839;SDS011;920;48.944;9.148;2023-08-01T03:46:13;4.43;;;3.30;;
1839;SDS011;920;48.944;9.148;2023-08-01T03:48:40;4.80;;;3.53;;
1839;SDS011;920;48.944;9.148;2023-08-01T03:51:08;4.60;;;3.20;;
1839;SDS011;920;48.944;9.148;2023-08-01T03:53:35;5.93;;;3.10;;
1839;SDS011;920;48.944;9.148;2023-08-01T03:56:04;4.90;;;3.50;;
1839;SDS011;920;48.944;9.148;2023-08-01T03:58:30;4.10;;;3.20;;
1839;SDS011;920;48.944;9.148;2023-08-01T04:00:57;3.63;;;3.20;;
1839;SDS011;920;48.944;9.148;2023-08-01T04:03:25;4.37;;;2.93;;
1839;SDS011;920;48.944;9.148;2023-08-01T04:05:52;4.40;;;3.20;;
1839;SDS011;920;48.944;9.148;2023-08-01T04:08:19;3.50;;;2.67;;
1839;SDS011;920;48.944;9.148;2023-08-01T04:10:48;4.50;;;3.40;;
1839;SDS011;920;48.944;9.148;2023-08-01T04:13:17;6.33;;;3.20;;
1839;SDS011;920;48.944;9.148;2023-08-01T04:15:43;5.30;;;3.50;;
1839;SDS011;920;48.944;9.148;2023-08-01T04:18:10;4.07;;;2.90;;
1839;SDS011;920;48.944;9.148;2023-08-01T04:20:37;4.67;;;3.10;;
1839;SDS011;920;48.944;9.148;2023-08-01T04:23:04;3.80;;;3.10;;
1839;SDS011;920;48.944;9.148;2023-08-01T04:25:30;4.27;;;3.40;;
1839;SDS011;920;48.944;9.148;2023-08-01T04:27:57;4.30;;;3.50;;
1839;SDS011;920;48.944;9.148;2023-08-01T04:30:25;5.40;;;3.27;;
1839;SDS011;920;48.944;9.148;2023-08-01T04:32:52;4.57;;;3.13;;
1839;SDS011;920;48.944;9.148;2023-08-01T04:35:19;4.10;;;3.27;;
1839;SDS011;920;48.944;9.148;2023-08-01T04:37:46;4.40;;;2.90;;
1839;SDS011;920;48.944;9.148;2023-08-01T04:40:12;3.80;;;2.63;;
1839;SDS011;920;48.944;9.148;2023-08-01T04:42:39;3.93;;;2.67;;
1839;SDS011;920;48.944;9.148;2023-08-01T04:45:06;4.30;;;2.97;;
1839;SDS011;920;48.944;9.148;2023-08-01T04:47:35;3.90;;;2.90;;
1839;SDS011;920;48.944;9.148;2023-08-01T04:50:02;4.77;;;2.97;;
1839;SDS011;920;48.944;9.148;2023-08-01T04:52:29;3.93;;;3.00;;
1839;SDS011;920;48.944;9.148;2023-08-01T04:54:56;3.90;;;3.33;;
1839;SDS011;920;48.944;9.148;2023-08-01T04:57:22;4.70;;;3.10;;
1839;SDS011;920;48.944;9.148;2023-08-01T04:59:49;3.40;;;2.60;;
1839;SDS011;920;48.944;9.148;2023-08-01T05:02:16;3.30;;;2.77;;
1839;SDS011;920;48.944;9.148;2023-08-01T05:04:44;4.37;;;3.00;;
1839;SDS011;920;48.944;9.148;2023-08-01T05:07:11;3.67;;;3.17;;
1839;SDS011;920;48.944;9.148;2023-08-01T05:09:37;3.93;;;3.00;;
1839;SDS011;920;48.944;9.148;2023-08-01T05:12:05;4.73;;;3.00;;
1839;SDS011;920;48.944;9.148;2023-08-01T05:14:32;4.90;;;3.20;;
1839;SDS011;920;48.944;9.148;2023-08-01T05:16:59;4.30;;;2.63;;
1839;SDS011;920;48.944;9.148;2023-08-01T05:19:25;3.70;;;2.70;;
1839;SDS011;920;48.944;9.148;2023-08-01T05:21:53;3.57;;;2.70;;
1839;SDS011;920;48.944;9.148;2023-08-01T05:24:21;4.00;;;2.63;;
1839;SDS011;920;48.944;9.148;2023-08-01T05:26:47;4.27;;;2.70;;
1839;SDS011;920;48.944;9.148;2023-08-01T05:29:14;4.13;;;2.73;;
1839;SDS011;920;48.944;9.148;2023-08-01T05:31:41;4.40;;;2.40;;
1839;SDS011;920;48.944;9.148;2023-08-01T05:34:07;3.67;;;2.53;;
1839;SDS011;920;48.944;9.148;2023-08-01T05:36:34;2.90;;;2.10;;
1839;SDS011;920;48.944;9.148;2023-08-01T05:39:03;3.67;;;2.40;;
1839;SDS011;920;48.944;9.148;2023-08-01T05:41:30;3.40;;;2.20;;
1839;SDS011;920;48.944;9.148;2023-08-01T05:43:57;3.97;;;2.80;;
1839;SDS011;920;48.944;9.148;2023-08-01T05:46:24;6.50;;;4.27;;
1839;SDS011;920;48.944;9.148;2023-08-01T05:48:51;10.80;;;6.70;;
1839;SDS011;920;48.944;9.148;2023-08-01T05:51:17;6.97;;;4.50;;
1839;SDS011;920;48.944;9.148;2023-08-01T05:53:44;7.40;;;4.47;;
1839;SDS011;920;48.944;9.148;2023-08-01T05:56:12;10.93;;;6.73;;
1839;SDS011;920;48.944;9.148;2023-08-01T05:58:39;13.27;;;7.40;;
1839;SDS011;920;48.944;9.148;2023-08-01T06:01:06;8.57;;;5.47;;
1839;SDS011;920;48.944;9.148;2023-08-01T06:03:34;4.17;;;3.07;;
1839;SDS011;920;48.944;9.148;2023-08-01T06:06:00;8.20;;;3.90;;
1839;SDS011;920;48.944;9.148;2023-08-01T06:08:27;4.87;;;3.20;;
1839;SDS011;920;48.944;9.148;2023-08-01T06:10:54;4.27;;;2.73;;
1839;SDS011;920;48.944;9.148;2023-08-01T06:13:22;4.93;;;2.90;;
1839;SDS011;920;48.944;9.148;2023-08-01T06:15:49;4.20;;;3.00;;
1839;SDS011;920;48.944;9.148;2023-08-01T06:18:15;3.83;;;3.00;;
1839;SDS011;920;48.944;9.148;2023-08-01T06:20:42;3.83;;;2.70;;
1839;SDS011;920;48.944;9.148;2023-08-01T06:23:09;4.40;;;2.77;;
1839;SDS011;920;48.944;9.148;2023-08-01T06:25:36;4.10;;;3.00;;
1839;SDS011;920;48.944;9.148;2023-08-01T06:28:02;3.37;;;2.70;;
1839;SDS011;920;48.944;9.148;2023-08-01T06:30:31;4.33;;;2.93;;
1839;SDS011;920;48.944;9.148;2023-08-01T06:32:57;3.30;;;2.40;;
1839;SDS011;920;48.944;9.148;2023-08-01T06:35:24;5.00;;;2.90;;
1839;SDS011;920;48.944;9.148;2023-08-01T06:37:51;6.33;;;3.17;;
1839;SDS011;920;48.944;9.148;2023-08-01T06:40:17;4.50;;;3.50;;
1839;SDS011;920;48.944;9.148;2023-08-01T06:42:44;5.30;;;3.90;;
1839;SDS011;920;48.944;9.148;2023-08-01T06:45:11;5.20;;;3.87;;
1839;SDS011;920;48.944;9.148;2023-08-01T06:47:39;4.07;;;3.33;;
1839;SDS011;920;48.944;9.148;2023-08-01T06:50:06;3.67;;;2.83;;
1839;SDS011;920;48.944;9.148;2023-08-01T06:52:33;4.83;;;3.80;;
1839;SDS011;920;48.944;9.148;2023-08-01T06:54:59;4.03;;;3.20;;
1839;SDS011;920;48.944;9.148;2023-08-01T06:57:26;5.23;;;3.43;;
1839;SDS011;920;48.944;9.148;2023-08-01T06:59:53;4.43;;;3.20;;
1839;SDS011;920;48.944;9.148;2023-08-01T07:02:20;4.67;;;3.37;;
1839;SDS011;920;48.944;9.148;2023-08-01T07:04:48;5.60;;;3.93;;
1839;SDS011;920;48.944;9.148;2023-08-01T07:07:15;4.67;;;3.50;;
1839;SDS011;920;48.944;9.148;2023-08-01T07:09:42;4.47;;;3.13;;
1839;SDS011;920;48.944;9.148;2023-08-01T07:12:09;4.17;;;3.17;;
1839;SDS011;920;48.944;9.148;2023-08-01T07:14:35;4.33;;;2.97;;
1839;SDS011;920;48.944;9.148;2023-08-01T07:17:02;4.13;;;2.90;;
1839;SDS011;920;48.944;9.148;2023-08-01T07:19:29;6.00;;;3.00;;
1839;SDS011;920;48.944;9.148;2023-08-01T07:21:57;4.80;;;3.27;;
1839;SDS011;920;48.944;9.148;2023-08-01T07:24:24;5.10;;;3.70;;
1839;SDS011;920;48.944;9.148;2023-08-01T07:26:51;6.03;;;3.90;;
1839;SDS011;920;48.944;9.148;2023-08-01T07:29:18;5.10;;;3.70;;
1839;SDS011;920;48.944;9.148;2023-08-01T07:31:46;4.53;;;3.37;;
1839;SDS011;920;48.944;9.148;2023-08-01T07:34:12;4.60;;;3.70;;
1839;SDS011;920;48.944;9.148;2023-08-01T07:36:39;4.63;;;3.80;;
1839;SDS011;920;48.944;9.148;2023-08-01T07:39:07;4.73;;;3.67;;
1839;SDS011;920;48.944;9.148;2023-08-01T07:41:34;4.80;;;3.73;;
1839;SDS011;920;48.944;9.148;2023-08-01T07:44:01;5.70;;;4.20;;
1839;SDS011;920;48.944;9.148;2023-08-01T07:46:28;5.47;;;4.27;;
1839;SDS011;920;48.944;9.148;2023-08-01T07:48:55;6.00;;;4.47;;
1839;SDS011;920;48.944;9.148;2023-08-01T07:51:22;6.57;;;5.00;;
1839;SDS011;920;48.944;9.148;2023-08-01T07:53:49;5.30;;;4.30;;
1839;SDS011;920;48.944;9.148;2023-08-01T07:56:18;6.10;;;4.70;;
1839;SDS011;920;48.944;9.148;2023-08-01T07:58:45;7.27;;;5.00;;
1839;SDS011;920;48.944;9.148;2023-08-01T08:01:12;6.73;;;4.37;;
1839;SDS011;920;48.944;9.148;2023-08-01T08:03:38;7.83;;;4.70;;
1839;SDS011;920;48.944;9.148;2023-08-01T08:06:05;5.50;;;4.20;;
1839;SDS011;920;48.944;9.148;2023-08-01T08:08:32;5.33;;;3.80;;
1839;SDS011;920;48.944;9.148;2023-08-01T08:10:59;5.83;;;3.90;;
1839;SDS011;920;48.944;9.148;2023-08-01T08:13:27;7.07;;;3.90;;
1839;SDS011;920;48.944;9.148;2023-08-01T08:15:55;4.87;;;4.03;;
1839;SDS011;920;48.944;9.148;2023-08-01T08:18:22;4.03;;;2.97;;
1839;SDS011;920;48.944;9.148;2023-08-01T08:20:49;3.53;;;2.90;;
1839;SDS011;920;48.944;9.148;2023-08-01T08:23:15;4.00;;;3.00;;
1839;SDS011;920;48.944;9.148;2023-08-01T08:25:42;6.07;;;2.93;;
1839;SDS011;920;48.944;9.148;2023-08-01T08:28:11;4.53;;;2.87;;
1839;SDS011;920;48.944;9.148;2023-08-01T08:30:40;3.90;;;2.70;;
1839;SDS011;920;48.944;9.148;2023-08-01T08:33:06;3.83;;;2.53;;
1839;SDS011;920;48.944;9.148;2023-08-01T08:35:35;3.20;;;2.60;;
1839;SDS011;920;48.944;9.148;2023-08-01T08:38:03;3.10;;;2.50;;
1839;SDS011;920;48.944;9.148;2023-08-01T08:40:31;3.57;;;2.40;;
1839;SDS011;920;48.944;9.148;2023-08-01T08:42:58;3.47;;;2.37;;
1839;SDS011;920;48.944;9.148;2023-08-01T08:45:28;3.00;;;2.27;;
1839;SDS011;920;48.944;9.148;2023-08-01T08:48:01;3.60;;;2.40;;
1839;SDS011;920;48.944;9.148;2023-08-01T08:50:29;2.70;;;2.00;;
1839;SDS011;920;48.944;9.148;2023-08-01T08:52:57;2.80;;;2.13;;
1839;SDS011;920;48.944;9.148;2023-08-01T08:55:24;3.07;;;2.10;;
1839;SDS011;920;48.944;9.148;2023-08-01T08:57:52;3.47;;;2.30;;
1839;SDS011;920;48.944;9.148;2023-08-01T09:00:19;2.57;;;1.90;;
1839;SDS011;920;48.944;9.148;2023-08-01T09:02:46;3.80;;;2.10;;
1839;SDS011;920;48.944;9.148;2023-08-01T09:05:14;2.53;;;1.90;;
1839;SDS011;920;48.944;9.148;2023-08-01T09:07:42;3.07;;;2.20;;
1839;SDS011;920;48.944;9.148;2023-08-01T09:10:09;3.10;;;2.20;;
1839;SDS011;920;48.944;9.148;2023-08-01T09:12:36;2.20;;;1.60;;
1839;SDS011;920;48.944;9.148;2023-08-01T09:15:03;2.40;;;1.70;;
1839;SDS011;920;48.944;9.148;2023-08-01T09:17:30;3.63;;;2.23;;
1839;SDS011;920;48.944;9.148;2023-08-01T09:20:02;4.47;;;1.97;;
1839;SDS011;920;48.944;9.148;2023-08-01T09:22:41;3.27;;;1.73;;
1839;SDS011;920;48.944;9.148;2023-08-01T09:25:09;3.20;;;1.90;;
1839;SDS011;920;48.944;9.148;2023-08-01T09:27:36;3.40;;;2.10;;
1839;SDS011;920;48.944;9.148;2023-08-01T09:30:07;4.53;;;2.60;;
1839;SDS011;920;48.944;9.148;2023-08-01T09:32:34;3.67;;;2.40;;
1839;SDS011;920;48.944;9.148;2023-08-01T09:35:04;4.47;;;2.77;;
1839;SDS011;920;48.944;9.148;2023-08-01T09:37:38;3.70;;;2.57;;
1839;SDS011;920;48.944;9.148;2023-08-01T09:40:08;3.13;;;2.40;;
1839;SDS011;920;48.944;9.148;2023-08-01T09:42:39;3.50;;;2.70;;
1839;SDS011;920;48.944;9.148;2023-08-01T09:45:07;3.50;;;2.50;;
1839;SDS011;920;48.944;9.148;2023-08-01T09:47:39;3.40;;;2.20;;
1839;SDS011;920;48.944;9.148;2023-08-01T09:50:06;2.57;;;1.97;;
1839;SDS011;920;48.944;9.148;2023-08-01T09:52:33;2.93;;;1.97;;
1839;SDS011;920;48.944;9.148;2023-08-01T09:55:00;2.50;;;1.60;;
1839;SDS011;920;48.944;9.148;2023-08-01T09:57:29;2.80;;;1.90;;
1839;SDS011;920;48.944;9.148;2023-08-01T09:59:56;3.17;;;1.90;;
1839;SDS011;920;48.944;9.148;2023-08-01T10:02:24;2.50;;;1.30;;
1839;SDS011;920;48.944;9.148;2023-08-01T10:04:52;2.37;;;1.20;;
1839;SDS011;920;48.944;9.148;2023-08-01T10:07:20;1.77;;;0.93;;
1839;SDS011;920;48.944;9.148;2023-08-01T10:09:50;1.87;;;0.90;;
1839;SDS011;920;48.944;9.148;2023-08-01T10:12:17;1.93;;;0.87;;
1839;SDS011;920;48.944;9.148;2023-08-01T10:14:45;1.80;;;1.00;;
1839;SDS011;920;48.944;9.148;2023-08-01T10:17:12;1.60;;;0.83;;
1839;SDS011;920;48.944;9.148;2023-08-01T10:19:40;2.80;;;0.83;;
1839;SDS011;920;48.944;9.148;2023-08-01T10:22:08;3.17;;;1.30;;
1839;SDS011;920;48.944;9.148;2023-08-01T10:24:36;2.00;;;0.73;;
1839;SDS011;920;48.944;9.148;2023-08-01T10:27:13;1.93;;;0.80;;
1839;SDS011;920;48.944;9.148;2023-08-01T10:29:42;1.60;;;0.80;;
1839;SDS011;920;48.944;9.148;2023-08-01T10:32:10;1.53;;;0.70;;
1839;SDS011;920;48.944;9.148;2023-08-01T10:34:37;1.70;;;0.93;;
1839;SDS011;920;48.944;9.148;2023-08-01T10:37:04;2.03;;;0.87;;
1839;SDS011;920;48.944;9.148;2023-08-01T10:39:31;1.73;;;0.83;;
1839;SDS011;920;48.944;9.148;2023-08-01T10:41:58;1.73;;;0.87;;
1839;SDS011;920;48.944;9.148;2023-08-01T10:44:25;1.43;;;0.80;;
1839;SDS011;920;48.944;9.148;2023-08-01T10:46:53;1.70;;;1.00;;
1839;SDS011;920;48.944;9.148;2023-08-01T10:49:32;2.20;;;1.00;;
1839;SDS011;920;48.944;9.148;2023-08-01T10:52:00;2.10;;;1.10;;
1839;SDS011;920;48.944;9.148;2023-08-01T10:54:27;2.17;;;1.10;;
1839;SDS011;920;48.944;9.148;2023-08-01T10:56:55;1.53;;;0.90;;
1839;SDS011;920;48.944;9.148;2023-08-01T10:59:24;1.87;;;1.20;;
1839;SDS011;920;48.944;9.148;2023-08-01T11:01:52;1.80;;;1.13;;
1839;SDS011;920;48.944;9.148;2023-08-01T11:04:20;2.53;;;1.40;;
1839;SDS011;920;48.944;9.148;2023-08-01T11:06:51;1.90;;;1.20;;
1839;SDS011;920;48.944;9.148;2023-08-01T11:09:19;3.80;;;1.50;;
1839;SDS011;920;48.944;9.148;2023-08-01T11:11:47;2.00;;;1.27;;
1839;SDS011;920;48.944;9.148;2023-08-01T11:14:15;2.13;;;1.47;;
1839;SDS011;920;48.944;9.148;2023-08-01T11:16:42;1.90;;;1.13;;
1839;SDS011;920;48.944;9.148;2023-08-01T11:19:17;3.83;;;1.33;;
1839;SDS011;920;48.944;9.148;2023-08-01T11:21:46;2.10;;;1.23;;
1839;SDS011;920;48.944;9.148;2023-08-01T11:24:13;2.30;;;1.40;;
1839;SDS011;920;48.944;9.148;2023-08-01T11:26:41;1.90;;;0.80;;
1839;SDS011;920;48.944;9.148;2023-08-01T11:29:09;2.10;;;1.00;;
1839;SDS011;920;48.944;9.148;2023-08-01T11:31:36;2.97;;;1.37;;
1839;SDS011;920;48.944;9.148;2023-08-01T11:34:02;4.07;;;1.43;;
1839;SDS011;920;48.944;9.148;2023-08-01T11:36:29;4.70;;;1.20;;
1839;SDS011;920;48.944;9.148;2023-08-01T11:38:58;2.40;;;1.20;;
1839;SDS011;920;48.944;9.148;2023-08-01T11:41:26;2.03;;;1.10;;
1839;SDS011;920;48.944;9.148;2023-08-01T11:43:53;2.30;;;1.20;;
1839;SDS011;920;48.944;9.148;2023-08-01T11:46:21;2.93;;;1.20;;
1839;SDS011;920;48.944;9.148;2023-08-01T11:48:48;2.37;;;1.20;;
1839;SDS011;920;48.944;9.148;2023-08-01T11:51:15;1.90;;;1.00;;
1839;SDS011;920;48.944;9.148;2023-08-01T11:53:42;9.50;;;2.23;;
1839;SDS011;920;48.944;9.148;2023-08-01T11:56:20;2.17;;;1.23;;
1839;SDS011;920;48.944;9.148;2023-08-01T11:58:47;3.17;;;1.30;;
1839;SDS011;920;48.944;9.148;2023-08-01T12:01:14;2.73;;;1.50;;
1839;SDS011;920;48.944;9.148;2023-08-01T12:03:42;4.13;;;1.40;;
1839;SDS011;920;48.944;9.148;2023-08-01T12:06:09;1.90;;;1.20;;
1839;SDS011;920;48.944;9.148;2023-08-01T12:08:37;2.10;;;1.10;;
1839;SDS011;920;48.944;9.148;2023-08-01T12:11:04;2.57;;;1.37;;
1839;SDS011;920;48.944;9.148;2023-08-01T12:13:32;2.30;;;1.40;;
1839;SDS011;920;48.944;9.148;2023-08-01T12:15:59;2.30;;;1.30;;
1839;SDS011;920;48.944;9.148;2023-08-01T12:18:26;2.03;;;1.30;;
1839;SDS011;920;48.944;9.148;2023-08-01T12:20:55;2.30;;;1.20;;
1839;SDS011;920;48.944;9.148;2023-08-01T12:23:22;2.73;;;1.60;;
1839;SDS011;920;48.944;9.148;2023-08-01T12:25:48;2.87;;;1.60;;
1839;SDS011;920;48.944;9.148;2023-08-01T12:28:15;2.37;;;1.37;;
1839;SDS011;920;48.944;9.148;2023-08-01T12:30:44;2.17;;;1.30;;
1839;SDS011;920;48.944;9.148;2023-08-01T12:33:11;2.53;;;1.50;;
1839;SDS011;920;48.944;9.148;2023-08-01T12:35:38;2.60;;;1.53;;
1839;SDS011;920;48.944;9.148;2023-08-01T12:38:06;3.20;;;1.43;;
1839;SDS011;920;48.944;9.148;2023-08-01T12:40:32;4.50;;;1.73;;
1839;SDS011;920;48.944;9.148;2023-08-01T12:42:59;2.77;;;1.47;;
1839;SDS011;920;48.944;9.148;2023-08-01T12:45:26;3.40;;;1.40;;
1839;SDS011;920;48.944;9.148;2023-08-01T12:47:54;2.43;;;1.57;;
1839;SDS011;920;48.944;9.148;2023-08-01T12:50:21;2.60;;;1.70;;
1839;SDS011;920;48.944;9.148;2023-08-01T12:52:47;2.47;;;1.50;;
1839;SDS011;920;48.944;9.148;2023-08-01T12:55:14;2.77;;;1.60;;
1839;SDS011;920;48.944;9.148;2023-08-01T12:57:41;2.07;;;1.23;;
1839;SDS011;920;48.944;9.148;2023-08-01T13:00:08;2.97;;;1.10;;
1839;SDS011;920;48.944;9.148;2023-08-01T13:02:36;1.90;;;0.97;;
1839;SDS011;920;48.944;9.148;2023-08-01T13:05:04;2.47;;;1.40;;
1839;SDS011;920;48.944;9.148;2023-08-01T13:07:31;2.43;;;1.27;;
1839;SDS011;920;48.944;9.148;2023-08-01T13:09:59;2.23;;;1.23;;
1839;SDS011;920;48.944;9.148;2023-08-01T13:12:26;2.70;;;1.60;;
1839;SDS011;920;48.944;9.148;2023-08-01T13:14:52;3.17;;;1.40;;
1839;SDS011;920;48.944;9.148;2023-08-01T13:17:19;3.27;;;1.90;;
1839;SDS011;920;48.944;9.148;2023-08-01T13:19:46;2.53;;;1.30;;
1839;SDS011;920;48.944;9.148;2023-08-01T13:22:14;2.37;;;1.37;;
1839;SDS011;920;48.944;9.148;2023-08-01T13:24:41;2.20;;;1.30;;
1839;SDS011;920;48.944;9.148;2023-08-01T13:27:08;2.17;;;1.27;;
1839;SDS011;920;48.944;9.148;2023-08-01T13:29:35;2.13;;;1.37;;
1839;SDS011;920;48.944;9.148;2023-08-01T13:32:01;3.13;;;1.53;;
1839;SDS011;920;48.944;9.148;2023-08-01T13:34:28;3.00;;;1.67;;
1839;SDS011;920;48.944;9.148;2023-08-01T13:36:55;2.57;;;1.33;;
1839;SDS011;920;48.944;9.148;2023-08-01T13:39:23;2.20;;;1.40;;
1839;SDS011;920;48.944;9.148;2023-08-01T13:41:50;3.00;;;1.60;;
1839;SDS011;920;48.944;9.148;2023-08-01T13:44:16;2.63;;;1.40;;
1839;SDS011;920;48.944;9.148;2023-08-01T13:46:43;2.93;;;1.60;;
1839;SDS011;920;48.944;9.148;2023-08-01T13:49:11;3.50;;;1.27;;
1839;SDS011;920;48.944;9.148;2023-08-01T13:51:38;4.37;;;1.37;;
1839;SDS011;920;48.944;9.148;2023-08-01T13:54:05;2.60;;;1.23;;
1839;SDS011;920;48.944;9.148;2023-08-01T13:56:33;1.90;;;1.10;;
1839;SDS011;920;48.944;9.148;2023-08-01T13:59:00;2.80;;;1.43;;
1839;SDS011;920;48.944;9.148;2023-08-01T14:01:26;2.70;;;1.50;;
1839;SDS011;920;48.944;9.148;2023-08-01T14:03:53;2.67;;;1.30;;
1839;SDS011;920;48.944;9.148;2023-08-01T14:06:20;2.30;;;1.40;;
1839;SDS011;920;48.944;9.148;2023-08-01T14:08:47;3.00;;;1.60;;
1839;SDS011;920;48.944;9.148;2023-08-01T14:11:13;4.50;;;1.30;;
1839;SDS011;920;48.944;9.148;2023-08-01T14:13:41;2.10;;;1.30;;
1839;SDS011;920;48.944;9.148;2023-08-01T14:16:11;3.00;;;1.30;;
1839;SDS011;920;48.944;9.148;2023-08-01T14:18:38;2.37;;;1.60;;
1839;SDS011;920;48.944;9.148;2023-08-01T14:21:05;2.40;;;1.47;;
1839;SDS011;920;48.944;9.148;2023-08-01T14:23:32;2.13;;;1.23;;
1839;SDS011;920;48.944;9.148;2023-08-01T14:25:58;4.20;;;1.40;;
1839;SDS011;920;48.944;9.148;2023-08-01T14:28:28;2.90;;;1.37;;
1839;SDS011;920;48.944;9.148;2023-08-01T14:31:01;2.93;;;1.50;;
1839;SDS011;920;48.944;9.148;2023-08-01T14:33:30;2.70;;;1.40;;
1839;SDS011;920;48.944;9.148;2023-08-01T14:35:57;2.87;;;1.50;;
1839;SDS011;920;48.944;9.148;2023-08-01T14:38:24;2.10;;;1.20;;
1839;SDS011;920;48.944;9.148;2023-08-01T14:40:51;2.60;;;1.30;;
1839;SDS011;920;48.944;9.148;2023-08-01T14:43:18;2.80;;;1.53;;
1839;SDS011;920;48.944;9.148;2023-08-01T14:45:45;2.40;;;1.57;;
1839;SDS011;920;48.944;9.148;2023-08-01T14:48:13;4.00;;;1.60;;
1839;SDS011;920;48.944;9.148;2023-08-01T14:50:40;2.60;;;1.53;;
1839;SDS011;920;48.944;9.148;2023-08-01T14:53:07;3.40;;;1.70;;
1839;SDS011;920;48.944;9.148;2023-08-01T14:55:34;2.97;;;1.60;;
1839;SDS011;920;48.944;9.148;2023-08-01T14:58:00;3.30;;;1.50;;
1839;SDS011;920;48.944;9.148;2023-08-01T15:00:27;2.30;;;1.50;;
1839;SDS011;920;48.944;9.148;2023-08-01T15:02:54;2.90;;;1.70;;
1839;SDS011;920;48.944;9.148;2023-08-01T15:05:22;3.03;;;1.40;;
1839;SDS011;920;48.944;9.148;2023-08-01T15:07:51;2.60;;;1.40;;
1839;SDS011;920;48.944;9.148;2023-08-01T15:10:17;2.47;;;1.50;;
1839;SDS011;920;48.944;9.148;2023-08-01T15:12:44;2.90;;;1.50;;
1839;SDS011;920;48.944;9.148;2023-08-01T15:15:11;2.63;;;1.60;;
1839;SDS011;920;48.944;9.148;2023-08-01T15:17:38;2.60;;;1.67;;
1839;SDS011;920;48.944;9.148;2023-08-01T15:20:05;2.30;;;1.23;;
1839;SDS011;920;48.944;9.148;2023-08-01T15:22:34;3.10;;;1.50;;
1839;SDS011;920;48.944;9.148;2023-08-01T15:25:00;2.50;;;1.40;;
1839;SDS011;920;48.944;9.148;2023-08-01T15:27:27;3.07;;;1.70;;
1839;SDS011;920;48.944;9.148;2023-08-01T15:29:54;2.83;;;1.33;;